sensor_id;sensor_type;location;lat;lon;timestamp;P1;durP1;ratioP1;P2;durP2;ratioP2
36789;SDS011;22740;52.182;8.780;2024-01-07T00:03:58;157.68;;;147.63;;
36789;SDS011;22740;52.182;8.780;2024-01-07T00:10:00;157.98;;;147.90;;
36789;SDS011;22740;52.182;8.780;2024-01-07T00:16:02;157.30;;;147.07;;
36789;SDS011;22740;52.182;8.780;2024-01-07T00:22:04;153.85;;;143.80;;
36789;SDS011;22740;52.182;8.780;2024-01-07T00:28:06;143.40;;;134.32;;
36789;SDS011;22740;52.182;8.780;2024-01-07T00:34:08;133.82;;;125.25;;
36789;SDS011;22740;52.182;8.780;2024-01-07T00:40:10;137.40;;;128.75;;
36789;SDS011;22740;52.182;8.780;2024-01-07T00:46:12;133.02;;;124.43;;
36789;SDS011;22740;52.182;8.780;2024-01-07T00:52:14;131.40;;;123.13;;
36789;SDS011;22740;52.182;8.780;2024-01-07T00:58:16;133.18;;;124.95;;
36789;SDS011;22740;52.182;8.780;2024-01-07T01:04:18;129.65;;;121.68;;
36789;SDS011;22740;52.182;8.780;2024-01-07T01:10:21;129.80;;;121.85;;
36789;SDS011;22740;52.182;8.780;2024-01-07T01:16:23;125.38;;;117.47;;
36789;SDS011;22740;52.182;8.780;2024-01-07T01:22:26;128.75;;;120.60;;
36789;SDS011;22740;52.182;8.780;2024-01-07T01:28:27;133.32;;;124.93;;
36789;SDS011;22740;52.182;8.780;2024-01-07T01:34:29;123.55;;;115.68;;
36789;SDS011;22740;52.182;8.780;2024-01-07T01:40:31;123.18;;;115.55;;
36789;SDS011;22740;52.182;8.780;2024-01-07T01:46:33;129.10;;;121.10;;
36789;SDS011;22740;52.182;8.780;2024-01-07T01:52:35;131.23;;;123.05;;
36789;SDS011;22740;52.182;8.780;2024-01-07T01:58:38;130.75;;;122.60;;
36789;SDS011;22740;52.182;8.780;2024-01-07T02:04:40;124.30;;;116.60;;
36789;SDS011;22740;52.182;8.780;2024-01-07T02:10:43;134.13;;;125.70;;
36789;SDS011;22740;52.182;8.780;2024-01-07T02:16:46;128.02;;;120.00;;
36789;SDS011;22740;52.182;8.780;2024-01-07T02:22:48;125.45;;;117.55;;
36789;SDS011;22740;52.182;8.780;2024-01-07T02:28:49;124.40;;;116.50;;
36789;SDS011;22740;52.182;8.780;2024-01-07T02:34:51;121.15;;;113.53;;
36789;SDS011;22740;52.182;8.780;2024-01-07T02:40:53;117.82;;;110.40;;
36789;SDS011;22740;52.182;8.780;2024-01-07T02:46:55;117.72;;;110.22;;
36789;SDS011;22740;52.182;8.780;2024-01-07T02:52:57;124.72;;;117.25;;
36789;SDS011;22740;52.182;8.780;2024-01-07T02:58:59;130.68;;;122.57;;
36789;SDS011;22740;52.182;8.780;2024-01-07T03:05:01;163.70;;;153.18;;
36789;SDS011;22740;52.182;8.780;2024-01-07T03:11:04;206.40;;;193.15;;
36789;SDS011;22740;52.182;8.780;2024-01-07T03:17:12;279.52;;;262.10;;
36789;SDS011;22740;52.182;8.780;2024-01-07T03:23:16;292.83;;;274.95;;
36789;SDS011;22740;52.182;8.780;2024-01-07T03:29:20;383.80;;;359.80;;
36789;SDS011;22740;52.182;8.780;2024-01-07T03:35:21;286.27;;;268.40;;
36789;SDS011;22740;52.182;8.780;2024-01-07T03:41:25;438.80;;;412.23;;
36789;SDS011;22740;52.182;8.780;2024-01-07T03:47:27;289.05;;;271.17;;
36789;SDS011;22740;52.182;8.780;2024-01-07T03:53:29;281.58;;;263.90;;
36789;SDS011;22740;52.182;8.780;2024-01-07T03:59:31;279.40;;;262.52;;
36789;SDS011;22740;52.182;8.780;2024-01-07T04:05:33;257.15;;;241.23;;
36789;SDS011;22740;52.182;8.780;2024-01-07T04:11:44;339.88;;;318.95;;
36789;SDS011;22740;52.182;8.780;2024-01-07T04:17:46;245.13;;;230.15;;
36789;SDS011;22740;52.182;8.780;2024-01-07T04:23:48;275.45;;;258.42;;
36789;SDS011;22740;52.182;8.780;2024-01-07T04:29:50;219.65;;;205.68;;
36789;SDS011;22740;52.182;8.780;2024-01-07T04:35:52;217.48;;;204.05;;
36789;SDS011;22740;52.182;8.780;2024-01-07T04:41:58;206.52;;;194.00;;
36789;SDS011;22740;52.182;8.780;2024-01-07T04:48:00;171.77;;;160.85;;
36789;SDS011;22740;52.182;8.780;2024-01-07T04:54:03;181.32;;;170.20;;
36789;SDS011;22740;52.182;8.780;2024-01-07T05:00:05;180.43;;;169.10;;
36789;SDS011;22740;52.182;8.780;2024-01-07T05:06:10;200.40;;;188.20;;
36789;SDS011;22740;52.182;8.780;2024-01-07T05:12:12;207.32;;;194.95;;
36789;SDS011;22740;52.182;8.780;2024-01-07T05:18:14;197.93;;;185.75;;
36789;SDS011;22740;52.182;8.780;2024-01-07T05:24:19;204.65;;;191.95;;
36789;SDS011;22740;52.182;8.780;2024-01-07T05:30:21;177.40;;;166.45;;
36789;SDS011;22740;52.182;8.780;2024-01-07T05:36:23;189.75;;;178.18;;
36789;SDS011;22740;52.182;8.780;2024-01-07T05:42:25;231.10;;;217.07;;
36789;SDS011;22740;52.182;8.780;2024-01-07T05:48:27;169.48;;;158.95;;
36789;SDS011;22740;52.182;8.780;2024-01-07T05:54:29;182.75;;;171.25;;
36789;SDS011;22740;52.182;8.780;2024-01-07T06:00:32;152.90;;;143.68;;
36789;SDS011;22740;52.182;8.780;2024-01-07T06:06:34;148.88;;;140.05;;
36789;SDS011;22740;52.182;8.780;2024-01-07T06:12:36;145.60;;;136.88;;
36789;SDS011;22740;52.182;8.780;2024-01-07T06:18:38;140.20;;;131.68;;
36789;SDS011;22740;52.182;8.780;2024-01-07T06:24:41;133.55;;;125.55;;
36789;SDS011;22740;52.182;8.780;2024-01-07T06:30:43;125.40;;;118.00;;
36789;SDS011;22740;52.182;8.780;2024-01-07T06:36:45;124.13;;;116.80;;
36789;SDS011;22740;52.182;8.780;2024-01-07T06:42:47;114.53;;;107.90;;
36789;SDS011;22740;52.182;8.780;2024-01-07T06:48:50;110.90;;;104.50;;
36789;SDS011;22740;52.182;8.780;2024-01-07T06:54:52;109.28;;;102.75;;
36789;SDS011;22740;52.182;8.780;2024-01-07T07:00:54;102.40;;;96.35;;
36789;SDS011;22740;52.182;8.780;2024-01-07T07:06:56;96.45;;;91.05;;
36789;SDS011;22740;52.182;8.780;2024-01-07T07:12:58;106.10;;;99.57;;
36789;SDS011;22740;52.182;8.780;2024-01-07T07:19:00;98.03;;;92.57;;
36789;SDS011;22740;52.182;8.780;2024-01-07T07:25:02;102.82;;;96.93;;
36789;SDS011;22740;52.182;8.780;2024-01-07T07:31:04;104.47;;;98.38;;
36789;SDS011;22740;52.182;8.780;2024-01-07T07:37:06;96.80;;;91.15;;
36789;SDS011;22740;52.182;8.780;2024-01-07T07:43:08;98.32;;;92.53;;
36789;SDS011;22740;52.182;8.780;2024-01-07T07:49:10;95.47;;;89.97;;
36789;SDS011;22740;52.182;8.780;2024-01-07T07:55:13;93.68;;;88.35;;
36789;SDS011;22740;52.182;8.780;2024-01-07T08:01:16;94.60;;;89.40;;
36789;SDS011;22740;52.182;8.780;2024-01-07T08:07:18;88.65;;;83.78;;
36789;SDS011;22740;52.182;8.780;2024-01-07T08:13:20;83.40;;;78.90;;
36789;SDS011;22740;52.182;8.780;2024-01-07T08:19:22;68.78;;;65.07;;
36789;SDS011;22740;52.182;8.780;2024-01-07T08:25:24;71.72;;;68.03;;
36789;SDS011;22740;52.182;8.780;2024-01-07T08:31:26;66.00;;;62.42;;
36789;SDS011;22740;52.182;8.780;2024-01-07T08:37:28;67.05;;;63.58;;
36789;SDS011;22740;52.182;8.780;2024-01-07T08:43:30;67.15;;;63.65;;
36789;SDS011;22740;52.182;8.780;2024-01-07T08:49:31;60.28;;;56.97;;
36789;SDS011;22740;52.182;8.780;2024-01-07T08:55:37;70.60;;;66.88;;
36789;SDS011;22740;52.182;8.780;2024-01-07T09:01:39;81.32;;;76.93;;
36789;SDS011;22740;52.182;8.780;2024-01-07T09:07:41;85.68;;;78.40;;
36789;SDS011;22740;52.182;8.780;2024-01-07T09:13:43;79.90;;;75.30;;
36789;SDS011;22740;52.182;8.780;2024-01-07T09:19:46;76.43;;;72.05;;
36789;SDS011;22740;52.182;8.780;2024-01-07T09:25:48;78.28;;;74.03;;
36789;SDS011;22740;52.182;8.780;2024-01-07T09:31:50;80.90;;;76.50;;
36789;SDS011;22740;52.182;8.780;2024-01-07T09:37:52;85.93;;;81.20;;
36789;SDS011;22740;52.182;8.780;2024-01-07T09:43:54;86.25;;;81.47;;
36789;SDS011;22740;52.182;8.780;2024-01-07T09:49:58;83.65;;;79.05;;
36789;SDS011;22740;52.182;8.780;2024-01-07T09:56:04;77.18;;;73.03;;
36789;SDS011;22740;52.182;8.780;2024-01-07T10:02:19;77.75;;;73.45;;
36789;SDS011;22740;52.182;8.780;2024-01-07T10:08:22;73.95;;;69.88;;
36789;SDS011;22740;52.182;8.780;2024-01-07T10:14:25;77.30;;;73.18;;
36789;SDS011;22740;52.182;8.780;2024-01-07T10:20:29;77.22;;;72.90;;
36789;SDS011;22740;52.182;8.780;2024-01-07T10:26:33;75.15;;;70.95;;
36789;SDS011;22740;52.182;8.780;2024-01-07T10:32:35;74.30;;;70.18;;
36789;SDS011;22740;52.182;8.780;2024-01-07T10:38:42;76.07;;;71.80;;
36789;SDS011;22740;52.182;8.780;2024-01-07T10:44:46;74.57;;;70.17;;
36789;SDS011;22740;52.182;8.780;2024-01-07T10:50:48;68.10;;;64.20;;
36789;SDS011;22740;52.182;8.780;2024-01-07T10:56:55;69.15;;;65.05;;
36789;SDS011;22740;52.182;8.780;2024-01-07T11:09:32;67.13;;;63.28;;
36789;SDS011;22740;52.182;8.780;2024-01-07T11:21:52;66.80;;;62.90;;
36789;SDS011;22740;52.182;8.780;2024-01-07T11:27:54;68.63;;;64.68;;
36789;SDS011;22740;52.182;8.780;2024-01-07T11:33:58;63.55;;;59.92;;
36789;SDS011;22740;52.182;8.780;2024-01-07T11:40:02;65.95;;;62.28;;
36789;SDS011;22740;52.182;8.780;2024-01-07T11:46:06;69.28;;;65.30;;
36789;SDS011;22740;52.182;8.780;2024-01-07T11:52:08;65.40;;;61.60;;
36789;SDS011;22740;52.182;8.780;2024-01-07T11:58:12;67.47;;;63.70;;
36789;SDS011;22740;52.182;8.780;2024-01-07T12:04:14;74.43;;;70.00;;
36789;SDS011;22740;52.182;8.780;2024-01-07T12:10:16;72.03;;;67.72;;
36789;SDS011;22740;52.182;8.780;2024-01-07T12:16:19;71.57;;;67.10;;
36789;SDS011;22740;52.182;8.780;2024-01-07T12:22:22;73.70;;;69.50;;
36789;SDS011;22740;52.182;8.780;2024-01-07T12:28:24;74.50;;;70.10;;
36789;SDS011;22740;52.182;8.780;2024-01-07T12:34:26;70.15;;;66.07;;
36789;SDS011;22740;52.182;8.780;2024-01-07T12:40:28;70.10;;;66.00;;
36789;SDS011;22740;52.182;8.780;2024-01-07T12:46:30;71.53;;;67.40;;
36789;SDS011;22740;52.182;8.780;2024-01-07T12:52:32;71.65;;;67.55;;
36789;SDS011;22740;52.182;8.780;2024-01-07T12:58:35;75.20;;;71.10;;
36789;SDS011;22740;52.182;8.780;2024-01-07T13:04:37;81.45;;;76.95;;
36789;SDS011;22740;52.182;8.780;2024-01-07T13:10:39;77.00;;;72.57;;
36789;SDS011;22740;52.182;8.780;2024-01-07T13:16:41;82.50;;;77.95;;
36789;SDS011;22740;52.182;8.780;2024-01-07T13:22:43;80.95;;;76.55;;
36789;SDS011;22740;52.182;8.780;2024-01-07T13:28:45;88.78;;;83.88;;
36789;SDS011;22740;52.182;8.780;2024-01-07T13:34:47;86.60;;;81.60;;
36789;SDS011;22740;52.182;8.780;2024-01-07T13:40:50;90.97;;;85.88;;
36789;SDS011;22740;52.182;8.780;2024-01-07T13:46:52;93.68;;;88.10;;
36789;SDS011;22740;52.182;8.780;2024-01-07T13:52:55;85.38;;;80.57;;
36789;SDS011;22740;52.182;8.780;2024-01-07T13:58:57;83.53;;;78.45;;
36789;SDS011;22740;52.182;8.780;2024-01-07T14:04:58;86.07;;;81.35;;
36789;SDS011;22740;52.182;8.780;2024-01-07T14:11:00;77.75;;;73.55;;
36789;SDS011;22740;52.182;8.780;2024-01-07T14:17:04;80.63;;;76.23;;
36789;SDS011;22740;52.182;8.780;2024-01-07T14:23:06;78.75;;;74.47;;
36789;SDS011;22740;52.182;8.780;2024-01-07T14:29:08;80.93;;;76.45;;
36789;SDS011;22740;52.182;8.780;2024-01-07T14:35:18;87.90;;;83.10;;
36789;SDS011;22740;52.182;8.780;2024-01-07T14:41:20;80.95;;;76.38;;
36789;SDS011;22740;52.182;8.780;2024-01-07T14:47:21;78.65;;;74.35;;
36789;SDS011;22740;52.182;8.780;2024-01-07T14:53:24;78.80;;;74.40;;
36789;SDS011;22740;52.182;8.780;2024-01-07T14:59:25;78.72;;;74.43;;
36789;SDS011;22740;52.182;8.780;2024-01-07T15:05:28;78.50;;;74.20;;
36789;SDS011;22740;52.182;8.780;2024-01-07T15:11:30;81.00;;;76.65;;
36789;SDS011;22740;52.182;8.780;2024-01-07T15:17:32;86.60;;;81.70;;
36789;SDS011;22740;52.182;8.780;2024-01-07T15:23:34;86.00;;;81.13;;
36789;SDS011;22740;52.182;8.780;2024-01-07T15:29:36;82.85;;;78.30;;
36789;SDS011;22740;52.182;8.780;2024-01-07T15:35:38;77.78;;;73.28;;
36789;SDS011;22740;52.182;8.780;2024-01-07T15:41:40;82.88;;;78.28;;
36789;SDS011;22740;52.182;8.780;2024-01-07T15:47:42;83.30;;;78.30;;
36789;SDS011;22740;52.182;8.780;2024-01-07T15:53:47;80.07;;;75.22;;
36789;SDS011;22740;52.182;8.780;2024-01-07T15:59:48;82.47;;;77.78;;
36789;SDS011;22740;52.182;8.780;2024-01-07T16:05:51;77.65;;;73.07;;
36789;SDS011;22740;52.182;8.780;2024-01-07T16:11:53;76.35;;;71.95;;
36789;SDS011;22740;52.182;8.780;2024-01-07T16:17:54;80.70;;;76.10;;
36789;SDS011;22740;52.182;8.780;2024-01-07T16:23:56;80.40;;;75.70;;
36789;SDS011;22740;52.182;8.780;2024-01-07T16:29:58;82.10;;;77.30;;
36789;SDS011;22740;52.182;8.780;2024-01-07T16:36:01;78.30;;;73.70;;
36789;SDS011;22740;52.182;8.780;2024-01-07T16:42:06;75.85;;;71.13;;
36789;SDS011;22740;52.182;8.780;2024-01-07T16:48:08;80.47;;;75.28;;
36789;SDS011;22740;52.182;8.780;2024-01-07T16:54:10;84.20;;;79.10;;
36789;SDS011;22740;52.182;8.780;2024-01-07T17:00:13;81.97;;;77.03;;
36789;SDS011;22740;52.182;8.780;2024-01-07T17:06:17;87.37;;;82.17;;
36789;SDS011;22740;52.182;8.780;2024-01-07T17:12:18;85.32;;;80.32;;
36789;SDS011;22740;52.182;8.780;2024-01-07T17:18:20;90.70;;;85.53;;
36789;SDS011;22740;52.182;8.780;2024-01-07T17:24:22;95.05;;;89.50;;
36789;SDS011;22740;52.182;8.780;2024-01-07T17:30:24;90.50;;;85.15;;
36789;SDS011;22740;52.182;8.780;2024-01-07T17:36:28;88.00;;;82.53;;
36789;SDS011;22740;52.182;8.780;2024-01-07T17:42:36;95.07;;;89.70;;
36789;SDS011;22740;52.182;8.780;2024-01-07T17:48:38;96.25;;;90.55;;
36789;SDS011;22740;52.182;8.780;2024-01-07T17:54:40;96.97;;;91.18;;
36789;SDS011;22740;52.182;8.780;2024-01-07T18:00:42;95.10;;;89.20;;
36789;SDS011;22740;52.182;8.780;2024-01-07T18:06:44;96.18;;;90.63;;
36789;SDS011;22740;52.182;8.780;2024-01-07T18:12:46;93.75;;;88.15;;
36789;SDS011;22740;52.182;8.780;2024-01-07T18:18:48;97.13;;;91.43;;
36789;SDS011;22740;52.182;8.780;2024-01-07T18:24:50;91.47;;;85.93;;
36789;SDS011;22740;52.182;8.780;2024-01-07T18:30:52;85.90;;;80.90;;
36789;SDS011;22740;52.182;8.780;2024-01-07T18:36:55;82.20;;;77.43;;
36789;SDS011;22740;52.182;8.780;2024-01-07T18:42:57;87.18;;;82.10;;
36789;SDS011;22740;52.182;8.780;2024-01-07T18:55:05;95.75;;;90.10;;
36789;SDS011;22740;52.182;8.780;2024-01-07T19:01:09;93.47;;;87.88;;
36789;SDS011;22740;52.182;8.780;2024-01-07T19:07:11;91.57;;;85.97;;
36789;SDS011;22740;52.182;8.780;2024-01-07T19:13:13;90.72;;;85.03;;
36789;SDS011;22740;52.182;8.780;2024-01-07T19:19:15;91.95;;;86.32;;
36789;SDS011;22740;52.182;8.780;2024-01-07T19:25:17;82.15;;;77.30;;
36789;SDS011;22740;52.182;8.780;2024-01-07T19:31:19;85.03;;;79.95;;
36789;SDS011;22740;52.182;8.780;2024-01-07T19:37:23;82.80;;;77.93;;
36789;SDS011;22740;52.182;8.780;2024-01-07T19:43:25;74.82;;;70.53;;
36789;SDS011;22740;52.182;8.780;2024-01-07T19:49:26;76.90;;;72.20;;
36789;SDS011;22740;52.182;8.780;2024-01-07T19:55:29;76.07;;;71.68;;
36789;SDS011;22740;52.182;8.780;2024-01-07T20:01:31;75.13;;;70.53;;
36789;SDS011;22740;52.182;8.780;2024-01-07T20:07:33;74.28;;;69.78;;
36789;SDS011;22740;52.182;8.780;2024-01-07T20:13:35;75.28;;;70.90;;
36789;SDS011;22740;52.182;8.780;2024-01-07T20:19:37;73.30;;;68.97;;
36789;SDS011;22740;52.182;8.780;2024-01-07T20:25:41;76.18;;;71.72;;
36789;SDS011;22740;52.182;8.780;2024-01-07T20:31:44;74.78;;;70.20;;
36789;SDS011;22740;52.182;8.780;2024-01-07T20:43:50;73.05;;;68.78;;
36789;SDS011;22740;52.182;8.780;2024-01-07T20:49:52;74.20;;;69.95;;
36789;SDS011;22740;52.182;8.780;2024-01-07T20:55:54;74.18;;;69.57;;
36789;SDS011;22740;52.182;8.780;2024-01-07T21:02:00;68.85;;;64.65;;
36789;SDS011;22740;52.182;8.780;2024-01-07T21:08:02;73.35;;;69.20;;
36789;SDS011;22740;52.182;8.780;2024-01-07T21:14:04;70.32;;;66.03;;
36789;SDS011;22740;52.182;8.780;2024-01-07T21:20:09;80.28;;;75.75;;
36789;SDS011;22740;52.182;8.780;2024-01-07T21:26:12;76.00;;;71.63;;
36789;SDS011;22740;52.182;8.780;2024-01-07T21:32:14;76.07;;;71.65;;
36789;SDS011;22740;52.182;8.780;2024-01-07T21:38:15;78.20;;;73.80;;
36789;SDS011;22740;52.182;8.780;2024-01-07T21:44:17;78.95;;;74.32;;
36789;SDS011;22740;52.182;8.780;2024-01-07T21:50:20;74.97;;;70.55;;
36789;SDS011;22740;52.182;8.780;2024-01-07T21:56:21;74.35;;;69.95;;
36789;SDS011;22740;52.182;8.780;2024-01-07T22:02:23;76.50;;;72.10;;
36789;SDS011;22740;52.182;8.780;2024-01-07T22:08:26;75.47;;;71.18;;
36789;SDS011;22740;52.182;8.780;2024-01-07T22:14:27;70.82;;;66.63;;
36789;SDS011;22740;52.182;8.780;2024-01-07T22:20:29;74.70;;;70.40;;
36789;SDS011;22740;52.182;8.780;2024-01-07T22:26:31;77.95;;;73.28;;
36789;SDS011;22740;52.182;8.780;2024-01-07T22:32:33;73.80;;;69.45;;
36789;SDS011;22740;52.182;8.780;2024-01-07T22:38:35;76.35;;;71.78;;
36789;SDS011;22740;52.182;8.780;2024-01-07T22:44:37;75.38;;;71.00;;
36789;SDS011;22740;52.182;8.780;2024-01-07T22:50:39;75.15;;;70.70;;
36789;SDS011;22740;52.182;8.780;2024-01-07T22:56:43;76.10;;;71.50;;
36789;SDS011;22740;52.182;8.780;2024-01-07T23:02:46;76.10;;;71.30;;
36789;SDS011;22740;52.182;8.780;2024-01-07T23:08:48;75.05;;;70.60;;
36789;SDS011;22740;52.182;8.780;2024-01-07T23:14:51;82.38;;;77.28;;
36789;SDS011;22740;52.182;8.780;2024-01-07T23:20:52;80.57;;;75.78;;
36789;SDS011;22740;52.182;8.780;2024-01-07T23:26:55;83.28;;;78.18;;
36789;SDS011;22740;52.182;8.780;2024-01-07T23:32:57;87.90;;;82.50;;
36789;SDS011;22740;52.182;8.780;2024-01-07T23:38:59;90.93;;;85.32;;
36789;SDS011;22740;52.182;8.780;2024-01-07T23:45:02;86.00;;;80.80;;
36789;SDS011;22740;52.182;8.780;2024-01-07T23:51:05;87.47;;;82.18;;
36789;SDS011;22740;52.182;8.780;2024-01-07T23:57:07;91.18;;;85.40;;
